Flight Track Log - Related Links

Times and Time Zones

All times are in EDT time to prevent confusion due to time zone crossing. See the LOF3385 flight status page for this flight to view local times or setup timezone preferences in your user account.

Time Position Orientation Groundspeed Altitude Reporting Facility
EDT Latitude Longitude Course Direction KTS MPH feet Rate Location/Type
Sun 06:00:26 AM 42.8694 -85.5775 248° West 173 199 2,500  Level Chicago Center
Sun 06:01:26 AM 42.8422 -85.6469 242° Southwest 199 229 4,600 2,400 Climbing Chicago Center
Sun 06:02:26 AM 42.8111 -85.7297 243° Southwest 234 269 7,300 2,479 Climbing Chicago Center
Sun 06:03:27 AM 42.7792 -85.8136 243° Southwest 244 281 9,600 1,835 Climbing Chicago Center
Sun 06:04:00 AM 42.7318 -85.8943 248° West  Level FlightAware Approximate
Sun 06:04:27 AM 42.7544 -85.9139 251° West 269 310 11,000  Level Chicago Center
Sun 06:05:00 AM 42.7082 -85.9727 248° West  Level FlightAware Approximate
Sun 06:05:27 AM 42.7253 -86.0244 250° West 292 336 12,900  Level Chicago Center
Sun 06:06:28 AM 42.7006 -86.1331 253° West 300 345 15,400 1,587 Climbing Chicago Center
Sun 06:07:28 AM 42.6739 -86.2397 251° West 297 342 16,100 350 Climbing Chicago Center
Sun 06:08:28 AM 42.6450 -86.3519 251° West 310 357 16,100  Level Chicago Center
Sun 06:09:28 AM 42.6175 -86.4625 251° West 311 358 16,100  Level Chicago Center
Sun 06:10:29 AM 42.5911 -86.5703 252° West 303 349 16,100  Level Chicago Center
Sun 06:11:29 AM 42.5617 -86.6819 250° West 311 358 16,100  Level Chicago Center
Sun 06:12:29 AM 42.5333 -86.7969 252° West 321 369 16,100 -850 Level Chicago Center
Sun 06:13:29 AM 42.5022 -86.9136 250° West 329 379 14,400 -1,537 Descending Chicago Center
Sun 06:14:30 AM 42.4744 -87.0239 251° West 313 360 13,000 -1,438 Descending Chicago Center
Sun 06:15:30 AM 42.4478 -87.1281 251° West 297 342 11,500 -1,450 Descending Chicago Center
Sun 06:16:30 AM 42.4214 -87.2272 250° West 285 328 10,100 -694 Descending Chicago Center
Sun 06:17:31 AM 42.3956 -87.3289 251° West 287 330 10,100 -496 Level Chicago Center
Sun 06:18:31 AM 42.3689 -87.4233 249° West 256 295 9,100 -1,050 Descending Chicago Center
Sun 06:19:31 AM 42.3450 -87.5072 249° West 241 277 8,000 -744 Descending Chicago Center
Sun 06:20:32 AM 42.2939 -87.5461 209° Southwest 244 281 7,600 -496 Descending Chicago Center
Sun 06:21:32 AM 42.2244 -87.5303 170° South 248 285 7,000 -300 Descending Chicago Center
Sun 06:22:32 AM 42.1575 -87.5114 168° South 246 283 7,000 -397 Level Chicago Center
Sun 06:23:33 AM 42.0928 -87.4931 168° South 239 275 6,200 -992 Descending Chicago Center
Sun 06:24:33 AM 42.0364 -87.4758 167° South 239 275 5,000 -600 Descending Chicago Center
Sun 06:25:33 AM 41.9650 -87.4553 168° South 240 276 5,000 -302 Level Chicago Center
Sun 06:27:52 AM 41.9667 -87.6500 271° West 169 194 4,000 -513 Descending Chicago TRACON
Sun 06:28:52 AM 41.9667 -87.7000 270° West 172 198 3,300 -789 Descending Chicago TRACON
Sun 06:29:46 AM 41.9667 -87.7667 270° West 153 176 2,500 -684 Descending Chicago TRACON
Sun 06:30:46 AM 41.9667 -87.8000 270° West 121 139 2,000 -571 Descending Chicago TRACON
Sun 06:31:52 AM 41.9833 -87.8500 294° West 126 145 1,300 -636 Descending Chicago TRACON

Login

Don't have an account? Register now (free) for customized features, flight alerts, and more!